createdAt,value
2018-06-30T00:01:31.856Z,14.24
2018-06-30T00:03:58.798Z,14.35
2018-06-30T00:06:26.624Z,14.26
2018-06-30T00:08:54.404Z,14.27
2018-06-30T00:11:21.320Z,14.33
2018-06-30T00:13:48.335Z,14.45
2018-06-30T00:16:15.284Z,14.76
2018-06-30T00:18:42.231Z,14.52
2018-06-30T00:21:09.930Z,14.25
2018-06-30T00:23:37.307Z,14.28
2018-06-30T00:26:04.472Z,14.53
2018-06-30T00:28:31.425Z,14.49
2018-06-30T00:30:58.340Z,14.45
2018-06-30T00:33:25.581Z,14.46
2018-06-30T00:35:52.521Z,14.49
2018-06-30T00:38:19.584Z,14.31
2018-06-30T00:40:46.462Z,14.39
2018-06-30T00:43:13.433Z,14.23
2018-06-30T00:45:40.375Z,14.07
2018-06-30T00:48:07.310Z,14.09
2018-06-30T00:50:34.226Z,13.93
2018-06-30T00:53:01.797Z,14.14
2018-06-30T00:55:29.040Z,14.05
2018-06-30T00:57:56.552Z,14.08
2018-06-30T01:00:24.287Z,14.09
2018-06-30T01:02:51.267Z,14.18
2018-06-30T01:05:18.247Z,14.19
2018-06-30T01:07:45.188Z,13.92
2018-06-30T01:10:12.109Z,13.85
2018-06-30T01:12:39.099Z,13.82
2018-06-30T01:15:06.076Z,13.84
2018-06-30T01:17:33.753Z,13.67
2018-06-30T01:20:00.679Z,13.76
2018-06-30T01:22:27.949Z,13.82
2018-06-30T01:24:55.347Z,13.91
2018-06-30T01:27:22.279Z,13.71
2018-06-30T01:29:49.407Z,13.81
2018-06-30T01:32:16.421Z,13.70
2018-06-30T01:34:43.340Z,13.88
2018-06-30T01:37:10.325Z,13.87
2018-06-30T01:39:37.259Z,13.82
2018-06-30T01:42:04.172Z,13.73
2018-06-30T01:44:31.100Z,13.73
2018-06-30T01:46:58.050Z,13.56
2018-06-30T01:49:25.038Z,13.27
2018-06-30T01:51:51.991Z,13.26
2018-06-30T01:54:18.928Z,13.40
2018-06-30T01:56:45.860Z,13.39
2018-06-30T01:59:12.787Z,13.38
2018-06-30T02:01:39.716Z,13.25
2018-06-30T02:04:06.664Z,13.20
2018-06-30T02:06:33.693Z,13.11
2018-06-30T02:09:00.611Z,13.30
2018-06-30T02:11:27.600Z,13.28
2018-06-30T02:13:54.547Z,13.28
2018-06-30T02:16:21.464Z,13.04
2018-06-30T02:18:48.399Z,13.08
2018-06-30T02:21:15.333Z,12.78
2018-06-30T02:23:42.252Z,12.69
2018-06-30T02:26:09.176Z,12.63
2018-06-30T02:28:36.147Z,12.65
2018-06-30T02:31:03.131Z,12.80
2018-06-30T02:33:30.053Z,12.71
2018-06-30T02:35:56.987Z,12.62
2018-06-30T02:38:23.916Z,12.76
2018-06-30T02:40:50.841Z,12.77
2018-06-30T02:43:17.760Z,12.74
2018-06-30T02:45:44.705Z,12.87
2018-06-30T02:48:11.629Z,12.78
2018-06-30T02:50:38.567Z,12.69
2018-06-30T02:53:05.500Z,12.77
2018-06-30T02:55:32.428Z,12.73
2018-06-30T02:57:59.356Z,12.59
2018-06-30T03:00:26.310Z,12.55
2018-06-30T03:02:53.233Z,12.48
2018-06-30T03:05:20.177Z,12.50
2018-06-30T03:07:47.105Z,12.53
2018-06-30T03:10:14.074Z,12.55
2018-06-30T03:12:41.059Z,12.63
2018-06-30T03:15:08.016Z,12.73
2018-06-30T03:17:34.946Z,12.64
2018-06-30T03:20:01.885Z,12.68
2018-06-30T03:22:28.816Z,12.72
2018-06-30T03:24:55.769Z,12.76
2018-06-30T03:27:22.693Z,12.81
2018-06-30T03:29:49.628Z,12.80
2018-06-30T03:32:16.557Z,12.90
2018-06-30T03:34:43.584Z,12.79
2018-06-30T03:37:11.324Z,12.84
2018-06-30T03:39:38.248Z,12.95
2018-06-30T03:42:05.281Z,13.06
2018-06-30T03:44:32.209Z,13.10
2018-06-30T03:46:59.117Z,13.20
2018-06-30T03:49:26.057Z,13.12
2018-06-30T03:51:53.165Z,13.24
2018-06-30T03:54:20.092Z,13.32
2018-06-30T03:56:47.024Z,13.30
2018-06-30T03:59:13.937Z,13.36
2018-06-30T04:01:40.886Z,13.50
2018-06-30T04:04:07.784Z,13.42
2018-06-30T04:06:34.724Z,13.42
2018-06-30T04:09:01.689Z,13.47
2018-06-30T04:11:28.631Z,13.46
2018-06-30T04:13:55.543Z,13.40
2018-06-30T04:16:22.477Z,13.27
2018-06-30T04:18:49.392Z,13.33
2018-06-30T04:21:16.333Z,13.28
2018-06-30T04:23:43.247Z,13.66
2018-06-30T04:26:10.209Z,13.55
2018-06-30T04:28:37.145Z,13.46
2018-06-30T04:31:04.233Z,13.48
2018-06-30T04:33:31.171Z,13.70
2018-06-30T04:35:58.121Z,13.65
2018-06-30T04:38:25.096Z,13.67
2018-06-30T04:40:52.040Z,13.96
2018-06-30T04:43:18.948Z,14.06
2018-06-30T04:45:45.900Z,14.17
2018-06-30T04:48:12.836Z,14.46
2018-06-30T04:50:39.764Z,14.44
2018-06-30T04:53:06.701Z,14.41
2018-06-30T04:55:33.644Z,14.56
2018-06-30T04:58:07.327Z,14.63
2018-06-30T05:00:34.250Z,14.88
2018-06-30T05:03:01.202Z,15.25
2018-06-30T05:05:28.124Z,15.14
2018-06-30T05:10:28.664Z,14.75
2018-06-30T05:12:55.592Z,14.64
2018-06-30T05:15:22.496Z,14.73
2018-06-30T05:17:49.398Z,14.75
2018-06-30T05:20:16.328Z,14.88
2018-06-30T05:22:43.253Z,15.01
2018-06-30T05:25:10.148Z,15.14
2018-06-30T05:27:37.093Z,15.20
2018-06-30T05:30:04.486Z,15.17
2018-06-30T05:32:31.454Z,15.35
2018-06-30T05:34:58.349Z,15.29
2018-06-30T05:37:25.287Z,15.50
2018-06-30T05:39:52.235Z,15.51
2018-06-30T05:42:19.165Z,15.55
2018-06-30T05:44:46.086Z,15.73
2018-06-30T05:47:13.050Z,16.15
2018-06-30T05:49:39.974Z,16.29
2018-06-30T05:52:06.916Z,16.32
2018-06-30T05:54:33.836Z,16.66
2018-06-30T05:57:00.795Z,16.84
2018-06-30T05:59:27.786Z,16.71
2018-06-30T06:01:54.797Z,16.73
2018-06-30T06:04:21.716Z,16.83
2018-06-30T06:06:48.676Z,16.84
2018-06-30T06:09:15.596Z,17.22
2018-06-30T06:11:42.556Z,17.29
2018-06-30T06:14:10.045Z,17.55
2018-06-30T06:16:37.024Z,17.68
2018-06-30T06:19:04.541Z,18.13
2018-06-30T06:21:31.502Z,18.23
2018-06-30T06:23:58.416Z,18.35
2018-06-30T06:26:25.432Z,18.48
2018-06-30T06:28:52.348Z,18.41
2018-06-30T06:31:19.313Z,18.55
2018-06-30T06:33:46.273Z,18.94
2018-06-30T06:36:13.216Z,19.03
2018-06-30T06:38:40.161Z,19.01
2018-06-30T06:41:07.089Z,19.06
2018-06-30T06:43:34.028Z,18.98
2018-06-30T06:46:00.973Z,19.40
2018-06-30T06:48:27.917Z,19.38
2018-06-30T06:50:54.835Z,19.45
2018-06-30T06:53:21.760Z,19.67
2018-06-30T06:55:48.699Z,19.72
2018-06-30T06:58:15.640Z,19.61
2018-06-30T07:00:42.604Z,19.98
2018-06-30T07:03:09.539Z,19.79
2018-06-30T07:05:36.468Z,19.98
2018-06-30T07:08:03.412Z,19.94
2018-06-30T07:10:30.353Z,19.92
2018-06-30T07:12:57.328Z,20.38
2018-06-30T07:15:24.243Z,20.39
2018-06-30T07:17:51.219Z,20.74
2018-06-30T07:20:18.172Z,20.77
2018-06-30T07:22:45.125Z,21.18
2018-06-30T07:25:12.053Z,21.12
2018-06-30T07:27:38.972Z,21.09
2018-06-30T07:30:05.962Z,21.63
2018-06-30T07:32:32.983Z,21.98
2018-06-30T07:34:59.881Z,21.87
2018-06-30T07:37:26.927Z,21.27
2018-06-30T07:39:53.806Z,22.17
2018-06-30T07:42:20.730Z,21.74
2018-06-30T07:44:47.685Z,22.36
2018-06-30T07:47:14.601Z,22.05
2018-06-30T07:49:41.518Z,22.05
2018-06-30T07:52:08.451Z,21.91
2018-06-30T07:54:35.348Z,21.46
2018-06-30T07:57:02.320Z,21.53
2018-06-30T07:59:29.234Z,22.71
2018-06-30T08:01:56.141Z,22.67
2018-06-30T08:04:23.081Z,22.61
2018-06-30T08:06:50.001Z,22.50
2018-06-30T08:09:16.920Z,21.29
2018-06-30T08:11:43.859Z,22.34
2018-06-30T08:14:10.789Z,23.35
2018-06-30T08:16:37.742Z,23.25
2018-06-30T08:19:04.956Z,24.00
2018-06-30T08:21:31.921Z,23.73
2018-06-30T08:23:58.940Z,24.17
2018-06-30T08:26:25.874Z,24.01
2018-06-30T08:28:52.804Z,23.91
2018-06-30T08:31:19.732Z,24.27
2018-06-30T08:33:46.680Z,23.73
2018-06-30T08:36:13.628Z,23.27
2018-06-30T08:38:40.531Z,23.17
2018-06-30T08:41:07.459Z,23.01
2018-06-30T08:43:34.385Z,22.50
2018-06-30T08:46:01.297Z,22.34
2018-06-30T08:48:28.316Z,22.86
2018-06-30T08:50:55.233Z,24.08
2018-06-30T08:53:22.220Z,23.15
2018-06-30T08:55:49.171Z,23.34
2018-06-30T08:58:16.124Z,22.82
2018-06-30T09:00:43.091Z,22.52
2018-06-30T09:03:09.980Z,21.93
2018-06-30T09:05:36.915Z,22.05
2018-06-30T09:08:03.913Z,22.52
2018-06-30T09:10:30.861Z,22.78
2018-06-30T09:12:57.833Z,24.41
2018-06-30T09:15:24.736Z,24.27
2018-06-30T09:17:51.655Z,23.42
2018-06-30T09:20:18.626Z,22.78
2018-06-30T09:22:45.520Z,22.52
2018-06-30T09:25:12.438Z,21.58
2018-06-30T09:27:39.365Z,22.41
2018-06-30T09:30:07.036Z,23.94
2018-06-30T09:32:33.968Z,24.09
2018-06-30T09:35:00.874Z,25.44
2018-06-30T09:37:27.800Z,24.22
2018-06-30T09:39:54.728Z,23.14
2018-06-30T09:42:21.666Z,23.07
2018-06-30T09:44:48.634Z,24.83
2018-06-30T09:47:15.523Z,22.58
2018-06-30T09:49:42.443Z,22.68
2018-06-30T09:52:09.377Z,22.90
2018-06-30T09:54:36.288Z,23.06
2018-06-30T09:57:03.253Z,23.33
2018-06-30T09:59:30.401Z,23.03
2018-06-30T10:01:57.333Z,21.84
2018-06-30T10:04:24.247Z,21.51
2018-06-30T10:06:51.188Z,21.56
2018-06-30T10:09:18.108Z,21.89
2018-06-30T10:11:45.021Z,21.68
2018-06-30T10:14:11.965Z,21.57
2018-06-30T10:16:38.937Z,21.51
2018-06-30T10:19:05.916Z,21.60
2018-06-30T10:21:32.796Z,21.57
2018-06-30T10:23:59.723Z,21.88
2018-06-30T10:26:26.684Z,21.91
2018-06-30T10:28:54.376Z,22.66
2018-06-30T10:31:21.353Z,23.28
2018-06-30T10:33:48.249Z,22.99
2018-06-30T10:36:15.167Z,22.99
2018-06-30T10:38:42.060Z,22.79
2018-06-30T10:41:08.985Z,22.45
2018-06-30T10:43:36.096Z,22.31
2018-06-30T10:46:03.046Z,21.81
2018-06-30T10:48:29.962Z,21.95
2018-06-30T10:50:56.905Z,21.82
2018-06-30T10:53:24.218Z,23.47
2018-06-30T10:55:51.153Z,23.41
2018-06-30T10:58:18.065Z,23.49
2018-06-30T11:00:44.994Z,23.57
2018-06-30T11:03:11.933Z,24.10
2018-06-30T11:05:38.849Z,23.36
2018-06-30T11:08:05.806Z,24.72
2018-06-30T11:10:32.772Z,23.84
2018-06-30T11:12:59.702Z,23.49
2018-06-30T11:15:26.654Z,22.92
2018-06-30T11:17:53.561Z,23.44
2018-06-30T11:20:20.510Z,23.68
2018-06-30T11:22:47.424Z,24.71
2018-06-30T11:25:14.357Z,25.56
2018-06-30T11:27:41.277Z,25.92
2018-06-30T11:30:08.473Z,24.69
2018-06-30T11:32:35.706Z,24.30
2018-06-30T11:35:02.660Z,25.32
2018-06-30T11:37:29.579Z,25.30
2018-06-30T11:39:56.529Z,26.12
2018-06-30T11:42:23.440Z,26.60
2018-06-30T11:44:50.357Z,26.94
2018-06-30T11:47:17.272Z,27.62
2018-06-30T11:49:44.240Z,27.13
2018-06-30T11:52:11.141Z,26.05
2018-06-30T11:54:38.064Z,24.21
2018-06-30T11:57:04.976Z,23.25
2018-06-30T11:59:31.875Z,23.92
2018-06-30T12:01:58.794Z,22.98
2018-06-30T12:04:25.765Z,22.87
2018-06-30T12:06:53.078Z,23.10
2018-06-30T12:09:20.068Z,22.81
2018-06-30T12:11:46.930Z,23.32
2018-06-30T12:14:13.896Z,23.15
2018-06-30T12:16:40.846Z,22.88
2018-06-30T12:19:07.773Z,23.49
2018-06-30T12:21:34.708Z,24.67
2018-06-30T12:24:01.637Z,25.14
2018-06-30T12:26:28.544Z,23.78
2018-06-30T12:28:55.465Z,24.36
2018-06-30T12:31:22.373Z,23.26
2018-06-30T12:33:49.296Z,22.96
2018-06-30T12:36:16.234Z,22.81
2018-06-30T12:38:43.194Z,22.58
2018-06-30T12:41:10.137Z,22.60
2018-06-30T12:43:37.060Z,23.62
2018-06-30T12:46:04.098Z,25.05
2018-06-30T12:48:31.041Z,25.89
2018-06-30T12:50:57.976Z,25.99
2018-06-30T12:53:24.919Z,25.83
2018-06-30T12:55:51.858Z,25.79
2018-06-30T12:58:18.843Z,26.33
2018-06-30T13:00:45.800Z,25.99
2018-06-30T13:03:12.724Z,26.02
2018-06-30T13:05:39.653Z,25.53
2018-06-30T13:08:06.585Z,24.86
2018-06-30T13:10:33.512Z,26.44
2018-06-30T13:13:00.444Z,26.17
2018-06-30T13:15:27.411Z,25.93
2018-06-30T13:17:54.341Z,26.17
2018-06-30T13:20:21.268Z,26.27
2018-06-30T13:22:48.188Z,25.58
2018-06-30T13:25:15.139Z,25.70
2018-06-30T13:27:42.076Z,26.64
2018-06-30T13:30:09.052Z,26.79
2018-06-30T13:32:36.014Z,26.35
2018-06-30T13:35:02.964Z,24.96
2018-06-30T13:37:29.913Z,26.14
2018-06-30T13:39:56.832Z,26.02
2018-06-30T13:42:23.785Z,26.22
2018-06-30T13:44:50.702Z,26.18
2018-06-30T13:47:17.630Z,26.19
2018-06-30T13:49:44.561Z,26.34
2018-06-30T13:52:11.479Z,25.80
2018-06-30T13:54:40.481Z,25.90
2018-06-30T13:57:09.125Z,25.04
2018-06-30T13:59:37.727Z,24.25
2018-06-30T14:02:07.144Z,23.97
2018-06-30T14:04:36.308Z,23.23
2018-06-30T14:07:05.583Z,23.01
2018-06-30T14:09:34.442Z,23.99
2018-06-30T14:12:03.433Z,24.37
2018-06-30T14:14:32.266Z,24.14
2018-06-30T14:17:01.117Z,23.78
2018-06-30T14:19:30.153Z,24.28
2018-06-30T14:22:00.905Z,24.28
2018-06-30T14:24:29.812Z,24.58
2018-06-30T14:26:59.200Z,25.08
2018-06-30T14:29:28.462Z,25.44
2018-06-30T14:31:58.094Z,25.15
2018-06-30T14:34:27.101Z,23.86
2018-06-30T14:36:54.026Z,23.48
2018-06-30T14:39:20.918Z,23.35
2018-06-30T14:41:47.840Z,24.01
2018-06-30T14:44:15.192Z,23.50
2018-06-30T14:46:42.132Z,24.40
2018-06-30T14:49:09.140Z,24.39
2018-06-30T14:51:36.142Z,23.97
2018-06-30T14:54:03.081Z,25.14
2018-06-30T14:56:30.061Z,25.03
2018-06-30T14:58:57.049Z,24.39
2018-06-30T15:01:24.180Z,24.26
2018-06-30T15:03:51.156Z,24.93
2018-06-30T15:06:18.147Z,24.88
2018-06-30T15:08:45.088Z,24.67
2018-06-30T15:11:12.008Z,24.43
2018-06-30T15:13:38.948Z,24.27
2018-06-30T15:16:05.900Z,23.87
2018-06-30T15:18:32.829Z,24.13
2018-06-30T15:20:59.731Z,23.78
2018-06-30T15:23:26.652Z,24.00
2018-06-30T15:25:53.552Z,23.43
2018-06-30T15:28:20.496Z,23.77
2018-06-30T15:30:47.395Z,24.14
2018-06-30T15:33:14.335Z,23.76
2018-06-30T15:35:41.256Z,24.13
2018-06-30T15:38:08.217Z,23.96
2018-06-30T15:40:35.145Z,24.14
2018-06-30T15:43:02.094Z,24.03
2018-06-30T15:45:29.037Z,24.26
2018-06-30T15:47:55.965Z,23.86
2018-06-30T15:50:22.880Z,23.94
2018-06-30T15:52:49.828Z,23.52
2018-06-30T15:55:16.743Z,23.79
2018-06-30T15:57:43.673Z,23.66
2018-06-30T16:00:10.603Z,23.64
2018-06-30T16:02:37.576Z,23.58
2018-06-30T16:05:04.534Z,23.89
2018-06-30T16:07:31.489Z,23.86
2018-06-30T16:09:58.430Z,23.70
2018-06-30T16:12:25.408Z,23.74
2018-06-30T16:14:52.328Z,23.66
2018-06-30T16:17:19.224Z,23.75
2018-06-30T16:19:46.131Z,23.39
2018-06-30T16:22:13.069Z,23.56
2018-06-30T16:24:40.031Z,23.31
2018-06-30T16:27:06.953Z,23.72
2018-06-30T16:29:34.078Z,23.29
2018-06-30T16:32:01.518Z,23.32
2018-06-30T16:34:28.478Z,23.23
2018-06-30T16:36:55.408Z,23.09
2018-06-30T16:39:22.312Z,23.20
2018-06-30T16:41:49.252Z,23.07
2018-06-30T16:44:16.192Z,22.74
2018-06-30T16:46:43.140Z,22.64
2018-06-30T16:49:10.105Z,22.58
2018-06-30T16:51:36.980Z,22.48
2018-06-30T16:54:04.168Z,22.70
2018-06-30T16:56:31.143Z,22.64
2018-06-30T16:58:59.019Z,22.52
2018-06-30T17:01:25.955Z,22.60
2018-06-30T17:03:52.921Z,22.56
2018-06-30T17:06:20.198Z,22.54
2018-06-30T17:08:47.036Z,22.37
2018-06-30T17:11:13.958Z,22.52
2018-06-30T17:13:40.912Z,22.42
2018-06-30T17:16:07.873Z,22.21
2018-06-30T17:18:35.178Z,22.04
2018-06-30T17:21:02.118Z,22.21
2018-06-30T17:23:29.049Z,22.27
2018-06-30T17:25:56.038Z,22.15
2018-06-30T17:28:23.144Z,22.35
2018-06-30T17:30:50.075Z,22.13
2018-06-30T17:33:17.007Z,22.37
2018-06-30T17:35:43.928Z,22.19
2018-06-30T17:38:10.841Z,21.97
2018-06-30T17:40:37.773Z,22.17
2018-06-30T17:43:05.113Z,22.15
2018-06-30T17:45:32.052Z,21.88
2018-06-30T17:47:59.011Z,21.95
2018-06-30T17:50:25.949Z,22.20
2018-06-30T17:52:52.883Z,21.87
2018-06-30T17:55:19.837Z,22.02
2018-06-30T17:57:46.772Z,21.86
2018-06-30T18:00:13.770Z,21.81
2018-06-30T18:02:40.705Z,21.56
2018-06-30T18:05:07.712Z,21.37
2018-06-30T18:07:34.633Z,21.26
2018-06-30T18:10:01.629Z,21.34
2018-06-30T18:12:28.517Z,21.46
2018-06-30T18:14:55.458Z,21.33
2018-06-30T18:17:22.381Z,21.19
2018-06-30T18:19:49.384Z,21.19
2018-06-30T18:22:16.352Z,21.25
2018-06-30T18:24:43.296Z,21.42
2018-06-30T18:27:10.256Z,21.35
2018-06-30T18:29:37.191Z,21.31
2018-06-30T18:32:04.157Z,21.30
2018-06-30T18:34:31.116Z,21.09
2018-06-30T18:36:58.062Z,20.89
2018-06-30T18:39:25.090Z,21.17
2018-06-30T18:41:51.937Z,21.03
2018-06-30T18:44:18.888Z,20.97
2018-06-30T18:46:45.937Z,20.91
2018-06-30T18:49:12.819Z,20.91
2018-06-30T18:51:39.743Z,20.93
2018-06-30T18:54:07.504Z,20.91
2018-06-30T18:56:34.452Z,20.64
2018-06-30T18:59:01.387Z,20.58
2018-06-30T19:01:28.349Z,20.51
2018-06-30T19:03:55.266Z,20.50
2018-06-30T19:06:22.201Z,20.44
2018-06-30T19:08:49.119Z,20.39
2018-06-30T19:11:16.047Z,20.25
2018-06-30T19:13:43.045Z,20.24
2018-06-30T19:16:09.976Z,20.14
2018-06-30T19:18:36.890Z,20.13
2018-06-30T19:21:03.819Z,19.99
2018-06-30T19:23:30.724Z,19.90
2018-06-30T19:25:57.662Z,19.81
2018-06-30T19:28:24.564Z,19.74
2018-06-30T19:30:51.508Z,19.66
2018-06-30T19:33:18.416Z,19.29
2018-06-30T19:35:45.403Z,19.11
2018-06-30T19:38:12.300Z,19.33
2018-06-30T19:40:39.203Z,19.31
2018-06-30T19:43:06.099Z,19.28
2018-06-30T19:45:33.052Z,19.19
2018-06-30T19:47:59.939Z,19.14
2018-06-30T19:50:26.832Z,19.18
2018-06-30T19:52:53.772Z,18.93
2018-06-30T19:55:20.677Z,18.75
2018-06-30T19:57:47.628Z,18.73
2018-06-30T20:00:14.560Z,18.60
2018-06-30T20:02:41.929Z,18.52
2018-06-30T20:05:08.829Z,18.62
2018-06-30T20:07:41.474Z,18.55
2018-06-30T20:10:08.376Z,18.36
2018-06-30T20:12:35.278Z,18.17
2018-06-30T20:15:02.212Z,18.18
2018-06-30T20:17:29.666Z,18.18
2018-06-30T20:19:56.560Z,18.11
2018-06-30T20:22:23.464Z,18.04
2018-06-30T20:24:50.384Z,17.96
2018-06-30T20:27:17.305Z,17.84
2018-06-30T20:29:44.212Z,17.80
2018-06-30T20:32:11.142Z,17.72
2018-06-30T20:34:38.057Z,17.66
2018-06-30T20:37:05.075Z,17.54
2018-06-30T20:39:37.936Z,17.47
2018-06-30T20:42:06.176Z,17.33
2018-06-30T20:44:33.966Z,17.26
2018-06-30T20:47:02.065Z,17.12
2018-06-30T20:49:29.700Z,17.18
2018-06-30T20:51:59.345Z,17.10
2018-06-30T20:54:27.570Z,17.11
2018-06-30T20:56:55.184Z,16.98
2018-06-30T20:59:22.736Z,17.00
2018-06-30T21:01:50.688Z,16.82
2018-06-30T21:04:18.191Z,16.70
2018-06-30T21:06:46.540Z,16.62
2018-06-30T21:09:15.633Z,16.52
2018-06-30T21:11:43.008Z,16.55
2018-06-30T21:14:09.939Z,16.54
2018-06-30T21:16:37.055Z,16.36
2018-06-30T21:19:04.214Z,16.30
2018-06-30T21:21:31.420Z,16.40
2018-06-30T21:23:58.380Z,16.25
2018-06-30T21:26:25.677Z,16.15
2018-06-30T21:28:52.792Z,16.01
2018-06-30T21:31:20.245Z,16.04
2018-06-30T21:33:47.332Z,16.00
2018-06-30T21:36:15.589Z,16.14
2018-06-30T21:38:42.605Z,16.09
2018-06-30T21:41:09.990Z,15.99
2018-06-30T21:43:37.406Z,15.98
2018-06-30T21:46:05.414Z,15.84
2018-06-30T21:48:32.841Z,15.72
2018-06-30T21:50:59.778Z,15.79
2018-06-30T21:53:27.173Z,15.73
2018-06-30T21:55:54.214Z,15.45
2018-06-30T21:58:22.596Z,15.36
2018-06-30T22:00:55.537Z,15.29
2018-06-30T22:03:24.000Z,15.19
2018-06-30T22:05:52.853Z,15.14
2018-06-30T22:08:20.027Z,15.04
2018-06-30T22:10:47.308Z,14.98
2018-06-30T22:13:14.494Z,14.91
2018-06-30T22:15:41.905Z,14.90
2018-06-30T22:18:09.267Z,14.98
2018-06-30T22:20:36.577Z,14.89
2018-06-30T22:23:04.274Z,15.03
2018-06-30T22:25:31.879Z,14.92
2018-06-30T22:27:59.123Z,15.01
2018-06-30T22:30:26.115Z,14.96
2018-06-30T22:32:53.086Z,14.96
2018-06-30T22:35:20.003Z,14.89
2018-06-30T22:37:47.088Z,14.80
2018-06-30T22:40:16.647Z,14.95
2018-06-30T22:42:44.161Z,14.96
2018-06-30T22:45:11.072Z,14.74
2018-06-30T22:47:37.980Z,14.80
2018-06-30T22:50:04.928Z,14.69
2018-06-30T22:52:31.864Z,14.69
2018-06-30T22:54:58.772Z,14.61
2018-06-30T22:57:25.688Z,14.66
2018-06-30T22:59:52.620Z,14.82
2018-06-30T23:02:19.645Z,14.61
2018-06-30T23:04:46.576Z,14.43
2018-06-30T23:07:13.577Z,14.54
2018-06-30T23:09:40.841Z,14.58
2018-06-30T23:12:07.933Z,14.44
2018-06-30T23:14:34.856Z,14.25
2018-06-30T23:17:01.784Z,14.28
2018-06-30T23:19:28.717Z,14.31
2018-06-30T23:21:55.720Z,14.12
2018-06-30T23:24:22.687Z,13.89
2018-06-30T23:26:49.612Z,13.77
2018-06-30T23:29:16.536Z,14.05
2018-06-30T23:31:43.448Z,13.96
2018-06-30T23:34:10.399Z,13.95
2018-06-30T23:36:37.328Z,13.97
2018-06-30T23:39:07.161Z,13.71
2018-06-30T23:41:34.070Z,13.75
2018-06-30T23:44:00.995Z,13.96
2018-06-30T23:46:27.905Z,13.97
2018-06-30T23:48:54.801Z,13.85
2018-06-30T23:51:21.704Z,13.93
2018-06-30T23:53:48.612Z,13.75
2018-06-30T23:56:15.535Z,13.75
2018-06-30T23:58:42.441Z,13.73
